KSVH

Statesville Regional Airport

Statesville, North Carolina, USA
METAR KSVH 201235Z AUTO 27004KT 10SM CLR M04/M07 A3015 RMK AO2 T10421075
Observed Flight Rules
Jan-20 @ 12:35 UTC (31 minutes ago) Visual Flight Rules
Wind Visibility Clouds
270° at 4 knots 10 miles
  • Clear skies
Temperatures Readings
Current -4°C / 25°F
Dewpoint -8°C / 18°F
Humidity 74%
Altimeter 30.15" Hg
Pressure 1021 hPa
Elevation 294
METAR KSVH 201235Z AUTO 27004KT 10SM CLR M04/M07 A3015 RMK AO2 T10421075
Observed Flight Rules
Jan-20 @ 12:35 UTC
(31 minutes ago)
VFR
Wind Visibility
270° at 4 knots 10 miles
Clouds
  • Clear skies
Temperature Dewpoint
-4°C / 25°F -8°C / 18°F
Humidity Altimeter Pressure
74% 30.15" Hg 1021 hPa